createdAt,value
2023-10-26T00:00:42.278Z,29.90
2023-10-26T00:01:44.325Z,26.83
2023-10-26T00:02:46.337Z,30.01
2023-10-26T00:03:48.528Z,31.81
2023-10-26T00:04:50.698Z,28.65
2023-10-26T00:05:52.667Z,28.25
2023-10-26T00:06:55.133Z,32.66
2023-10-26T00:07:57.069Z,30.98
2023-10-26T00:08:59.069Z,29.62
2023-10-26T00:10:00.988Z,27.50
2023-10-26T00:11:03.032Z,29.66
2023-10-26T00:12:05.357Z,32.63
2023-10-26T00:13:08.856Z,32.92
2023-10-26T00:14:10.948Z,30.02
2023-10-26T00:15:12.923Z,27.64
2023-10-26T00:16:14.939Z,26.53
2023-10-26T00:17:16.901Z,29.11
2023-10-26T00:18:18.957Z,26.61
2023-10-26T00:19:21.154Z,33.49
2023-10-26T00:20:23.172Z,29.23
2023-10-26T00:21:25.138Z,27.15
2023-10-26T00:22:27.172Z,32.00
2023-10-26T00:23:29.224Z,30.00
2023-10-26T00:24:31.168Z,28.29
2023-10-26T00:25:33.120Z,28.99
2023-10-26T00:26:35.085Z,24.87
2023-10-26T00:27:37.031Z,26.05
2023-10-26T00:28:38.981Z,21.49
2023-10-26T00:29:40.936Z,28.94
2023-10-26T00:30:43.092Z,27.14
2023-10-26T00:31:45.047Z,26.49
2023-10-26T00:32:47.294Z,28.10
2023-10-26T00:33:49.272Z,26.55
2023-10-26T00:34:51.309Z,23.86
2023-10-26T00:35:53.291Z,27.94
2023-10-26T00:36:55.530Z,27.39
2023-10-26T00:37:57.873Z,24.15
2023-10-26T00:38:59.751Z,26.44
2023-10-26T00:40:01.702Z,26.07
2023-10-26T00:41:03.732Z,24.24
2023-10-26T00:42:05.644Z,25.29
2023-10-26T00:43:07.660Z,26.78
2023-10-26T00:44:09.689Z,25.82
2023-10-26T00:45:11.581Z,25.21
2023-10-26T00:46:13.603Z,23.60
2023-10-26T00:47:15.546Z,24.24
2023-10-26T00:48:17.630Z,23.41
2023-10-26T00:49:19.905Z,27.37
2023-10-26T00:50:22.133Z,23.39
2023-10-26T00:51:24.422Z,22.32
2023-10-26T00:52:26.443Z,21.77
2023-10-26T00:53:28.390Z,24.25
2023-10-26T00:54:30.344Z,27.71
2023-10-26T00:55:32.394Z,23.87
2023-10-26T00:56:34.650Z,26.05
2023-10-26T00:57:36.702Z,23.69
2023-10-26T00:58:38.657Z,25.88
2023-10-26T00:59:40.629Z,24.73
2023-10-26T01:00:42.768Z,24.64
2023-10-26T01:01:44.623Z,22.96
2023-10-26T01:02:46.712Z,24.13
2023-10-26T01:03:48.749Z,26.29
2023-10-26T01:04:51.097Z,24.69
2023-10-26T01:05:53.230Z,23.76
2023-10-26T01:06:55.216Z,24.42
2023-10-26T01:07:57.154Z,24.21
2023-10-26T01:08:59.041Z,22.67
2023-10-26T01:10:01.083Z,26.73
2023-10-26T01:11:03.121Z,23.83
2023-10-26T01:12:04.937Z,24.13
2023-10-26T01:13:06.820Z,23.95
2023-10-26T01:14:08.767Z,26.85
2023-10-26T01:15:10.972Z,23.85
2023-10-26T01:16:13.088Z,21.82
2023-10-26T01:17:15.038Z,24.02
2023-10-26T01:18:17.228Z,20.99
2023-10-26T01:19:19.382Z,23.24
2023-10-26T01:20:21.441Z,24.59
2023-10-26T01:21:23.505Z,25.32
2023-10-26T01:22:25.521Z,20.07
2023-10-26T01:23:27.887Z,23.39
2023-10-26T01:24:29.837Z,23.39
2023-10-26T01:25:31.581Z,23.17
2023-10-26T01:26:33.637Z,21.43
2023-10-26T01:27:35.587Z,22.93
2023-10-26T01:28:37.548Z,26.85
2023-10-26T01:29:39.504Z,21.88
2023-10-26T01:30:41.879Z,25.81
2023-10-26T01:31:43.935Z,25.31
2023-10-26T01:32:46.017Z,23.93
2023-10-26T01:33:48.063Z,28.59
2023-10-26T01:34:50.276Z,26.41
2023-10-26T01:35:52.188Z,20.85
2023-10-26T01:36:54.198Z,21.37
2023-10-26T01:37:56.240Z,22.48
2023-10-26T01:38:58.237Z,25.92
2023-10-26T01:40:00.209Z,22.16
2023-10-26T01:41:02.003Z,22.77
2023-10-26T01:42:03.887Z,22.94
2023-10-26T01:43:05.831Z,20.59
2023-10-26T01:44:07.747Z,20.49
2023-10-26T01:45:09.759Z,21.90
2023-10-26T01:46:12.074Z,21.45
2023-10-26T01:47:14.133Z,22.13
2023-10-26T01:48:16.245Z,20.54
2023-10-26T01:49:18.198Z,24.95
2023-10-26T01:50:20.280Z,23.53
2023-10-26T01:51:22.369Z,23.69
2023-10-26T01:52:24.432Z,23.95
2023-10-26T01:53:26.454Z,22.78
2023-10-26T01:54:28.428Z,20.96
2023-10-26T01:55:30.580Z,21.59
2023-10-26T01:56:33.149Z,27.05
2023-10-26T01:57:35.078Z,23.50
2023-10-26T01:58:37.026Z,21.15
2023-10-26T01:59:38.993Z,21.94
2023-10-26T02:00:41.453Z,22.85
2023-10-26T02:01:43.310Z,24.69
2023-10-26T02:02:45.710Z,21.85
2023-10-26T02:03:47.753Z,25.01
2023-10-26T02:04:49.769Z,22.13
2023-10-26T02:05:51.795Z,20.75
2023-10-26T02:06:53.837Z,21.77
2023-10-26T02:07:55.838Z,22.65
2023-10-26T02:08:57.841Z,18.54
2023-10-26T02:09:59.736Z,21.92
2023-10-26T02:11:01.933Z,24.59
2023-10-26T02:12:03.953Z,23.95
2023-10-26T02:13:05.921Z,24.62
2023-10-26T02:14:07.852Z,22.83
2023-10-26T02:15:09.748Z,23.29
2023-10-26T02:16:12.577Z,23.39
2023-10-26T02:17:14.535Z,22.61
2023-10-26T02:18:16.608Z,22.87
2023-10-26T02:19:19.671Z,25.23
2023-10-26T02:20:21.941Z,20.83
2023-10-26T02:21:23.985Z,28.04
2023-10-26T02:22:25.842Z,20.59
2023-10-26T02:23:27.642Z,23.84
2023-10-26T02:24:29.568Z,23.35
2023-10-26T02:25:31.349Z,26.81
2023-10-26T02:26:33.194Z,20.71
2023-10-26T02:27:35.043Z,22.84
2023-10-26T02:28:36.951Z,26.47
2023-10-26T02:29:38.803Z,25.47
2023-10-26T02:30:40.759Z,21.04
2023-10-26T02:31:42.603Z,24.15
2023-10-26T02:32:44.536Z,25.99
2023-10-26T02:33:46.455Z,25.20
2023-10-26T02:34:48.320Z,21.49
2023-10-26T02:35:50.142Z,23.38
2023-10-26T02:36:52.182Z,23.10
2023-10-26T02:37:54.048Z,23.92
2023-10-26T02:38:55.977Z,24.25
2023-10-26T02:39:57.811Z,24.87
2023-10-26T02:40:59.666Z,23.59
2023-10-26T02:42:01.555Z,24.90
2023-10-26T02:43:03.372Z,19.61
2023-10-26T02:44:05.263Z,21.51
2023-10-26T02:45:07.101Z,22.32
2023-10-26T02:46:08.966Z,23.95
2023-10-26T02:47:10.801Z,30.31
2023-10-26T02:48:12.723Z,22.04
2023-10-26T02:49:14.651Z,24.27
2023-10-26T02:50:17.064Z,24.05
2023-10-26T02:51:18.968Z,21.11
2023-10-26T02:52:20.834Z,25.33
2023-10-26T02:53:22.626Z,23.65
2023-10-26T02:54:24.399Z,23.77
2023-10-26T02:55:26.246Z,23.62
2023-10-26T02:56:28.404Z,22.12
2023-10-26T02:57:30.287Z,22.37
2023-10-26T02:58:32.110Z,28.00
2023-10-26T02:59:34.074Z,21.91
2023-10-26T03:00:36.037Z,24.12
2023-10-26T03:01:38.496Z,22.47
2023-10-26T03:02:41.919Z,23.03
2023-10-26T03:03:44.125Z,25.69
2023-10-26T03:04:46.288Z,24.36
2023-10-26T03:05:48.265Z,25.84
2023-10-26T03:06:50.299Z,25.74
2023-10-26T03:07:52.358Z,24.02
2023-10-26T03:08:54.425Z,25.63
2023-10-26T03:09:56.513Z,23.68
2023-10-26T03:10:58.619Z,29.52
2023-10-26T03:12:00.613Z,23.29
2023-10-26T03:13:02.636Z,24.89
2023-10-26T03:14:04.478Z,27.07
2023-10-26T03:15:06.456Z,25.53
2023-10-26T03:16:08.814Z,32.01
2023-10-26T03:17:10.757Z,24.75
2023-10-26T03:18:12.803Z,23.87
2023-10-26T03:19:14.758Z,22.82
2023-10-26T03:20:17.007Z,24.47
2023-10-26T03:21:18.991Z,26.71
2023-10-26T03:22:21.384Z,26.15
2023-10-26T03:23:23.490Z,25.17
2023-10-26T03:24:25.776Z,22.61
2023-10-26T03:25:27.821Z,26.55
2023-10-26T03:26:29.768Z,28.90
2023-10-26T03:27:31.751Z,27.05
2023-10-26T03:28:33.774Z,22.66
2023-10-26T03:29:35.714Z,30.27
2023-10-26T03:30:37.791Z,26.19
2023-10-26T03:31:39.829Z,26.63
2023-10-26T03:32:41.814Z,24.16
2023-10-26T03:33:43.766Z,27.99
2023-10-26T03:34:45.968Z,26.78
2023-10-26T03:35:48.158Z,28.63
2023-10-26T03:36:50.125Z,24.33
2023-10-26T03:37:52.262Z,22.25
2023-10-26T03:38:54.232Z,25.59
2023-10-26T03:39:56.163Z,22.03
2023-10-26T03:40:58.324Z,33.45
2023-10-26T03:42:00.330Z,36.34
2023-10-26T03:43:02.331Z,31.45
2023-10-26T03:44:04.292Z,29.56
2023-10-26T03:45:06.286Z,43.05
2023-10-26T03:46:08.234Z,71.83
2023-10-26T03:47:10.228Z,61.55
2023-10-26T03:48:12.153Z,29.50
2023-10-26T03:49:14.047Z,27.05
2023-10-26T03:50:15.892Z,22.85
2023-10-26T03:51:17.824Z,24.07
2023-10-26T03:52:19.749Z,23.97
2023-10-26T03:53:21.597Z,23.09
2023-10-26T03:54:23.477Z,25.49
2023-10-26T03:55:25.374Z,20.79
2023-10-26T03:56:27.250Z,24.18
2023-10-26T03:57:29.106Z,22.49
2023-10-26T03:58:30.949Z,23.87
2023-10-26T03:59:32.685Z,25.03
2023-10-26T04:00:34.863Z,24.28
2023-10-26T04:01:36.737Z,24.00
2023-10-26T04:02:38.593Z,24.63
2023-10-26T04:03:40.533Z,24.77
2023-10-26T04:04:42.491Z,21.63
2023-10-26T04:05:44.508Z,20.47
2023-10-26T04:06:46.401Z,23.19
2023-10-26T04:07:48.245Z,23.03
2023-10-26T04:08:50.073Z,20.41
2023-10-26T04:09:51.929Z,24.58
2023-10-26T04:10:55.510Z,23.11
2023-10-26T04:11:57.404Z,22.50
2023-10-26T04:12:59.216Z,23.05
2023-10-26T04:14:01.086Z,21.97
2023-10-26T04:15:02.969Z,22.84
2023-10-26T04:16:04.870Z,23.68
2023-10-26T04:17:06.746Z,24.43
2023-10-26T04:18:08.556Z,31.41
2023-10-26T04:19:11.487Z,26.61
2023-10-26T04:20:13.464Z,26.61
2023-10-26T04:21:15.388Z,25.94
2023-10-26T04:22:17.271Z,27.12
2023-10-26T04:23:19.697Z,27.03
2023-10-26T04:24:21.587Z,24.81
2023-10-26T04:25:23.649Z,26.77
2023-10-26T04:26:25.692Z,28.27
2023-10-26T04:27:27.624Z,24.87
2023-10-26T04:28:29.320Z,27.54
2023-10-26T04:29:31.170Z,30.86
2023-10-26T04:30:33.069Z,24.19
2023-10-26T04:31:34.894Z,24.49
2023-10-26T04:32:36.797Z,25.85
2023-10-26T04:33:38.679Z,29.23
2023-10-26T04:34:40.465Z,30.97
2023-10-26T04:35:42.288Z,27.03
2023-10-26T04:36:44.134Z,24.55
2023-10-26T04:37:46.016Z,25.57
2023-10-26T04:38:47.837Z,26.16
2023-10-26T04:39:49.691Z,23.87
2023-10-26T04:40:51.551Z,26.59
2023-10-26T04:41:53.391Z,31.07
2023-10-26T04:42:55.252Z,30.61
2023-10-26T04:43:57.081Z,31.05
2023-10-26T04:44:58.970Z,28.94
2023-10-26T04:46:00.796Z,27.12
2023-10-26T04:47:02.622Z,27.53
2023-10-26T04:48:04.722Z,32.68
2023-10-26T04:49:06.743Z,28.31
2023-10-26T04:50:08.583Z,27.77
2023-10-26T04:51:10.452Z,30.96
2023-10-26T04:52:12.182Z,28.70
2023-10-26T04:53:14.058Z,30.84
2023-10-26T04:54:15.899Z,26.19
2023-10-26T04:55:17.734Z,23.55
2023-10-26T04:56:19.603Z,27.69
2023-10-26T04:57:21.365Z,29.45
2023-10-26T04:58:23.209Z,23.14
2023-10-26T05:00:29.515Z,28.14
2023-10-26T05:01:32.945Z,26.76
2023-10-26T05:02:34.885Z,24.83
2023-10-26T05:03:36.662Z,28.26
2023-10-26T05:04:38.476Z,23.76
2023-10-26T05:05:40.344Z,23.06
2023-10-26T05:06:42.259Z,22.96
2023-10-26T05:07:44.120Z,23.95
2023-10-26T05:08:45.910Z,26.31
2023-10-26T05:09:47.772Z,27.97
2023-10-26T05:10:49.965Z,72.74
2023-10-26T05:11:51.837Z,26.33
2023-10-26T05:12:54.202Z,27.74
2023-10-26T05:13:56.085Z,25.39
2023-10-26T05:14:58.030Z,27.41
2023-10-26T05:15:59.914Z,27.37
2023-10-26T05:17:01.663Z,30.70
2023-10-26T05:18:03.744Z,28.31
2023-10-26T05:19:05.684Z,29.85
2023-10-26T05:20:07.628Z,31.90
2023-10-26T05:21:09.391Z,26.12
2023-10-26T05:22:11.126Z,36.34
2023-10-26T05:23:12.971Z,32.11
2023-10-26T05:24:14.850Z,31.48
2023-10-26T05:25:16.688Z,34.13
2023-10-26T05:26:18.632Z,34.52
2023-10-26T05:27:20.571Z,37.07
2023-10-26T05:28:22.479Z,48.97
2023-10-26T05:29:24.344Z,32.79
2023-10-26T05:30:26.221Z,30.07
2023-10-26T05:31:28.071Z,32.11
2023-10-26T05:32:29.928Z,36.93
2023-10-26T05:33:32.185Z,36.06
2023-10-26T05:34:35.505Z,39.49
2023-10-26T05:35:37.336Z,33.85
2023-10-26T05:36:39.462Z,30.97
2023-10-26T05:37:41.325Z,25.49
2023-10-26T05:38:45.896Z,32.37
2023-10-26T05:39:46.854Z,41.00
2023-10-26T05:40:48.919Z,42.19
2023-10-26T05:41:50.926Z,35.66
2023-10-26T05:42:52.876Z,37.40
2023-10-26T05:43:54.831Z,33.02
2023-10-26T05:44:56.840Z,37.69
2023-10-26T05:45:58.958Z,43.49
2023-10-26T05:47:01.103Z,45.55
2023-10-26T05:48:03.122Z,47.81
2023-10-26T05:49:05.007Z,46.52
2023-10-26T05:50:06.982Z,51.20
2023-10-26T05:51:08.929Z,48.56
2023-10-26T05:52:10.796Z,60.71
2023-10-26T05:53:12.657Z,48.05
2023-10-26T05:54:14.541Z,43.34
2023-10-26T05:55:16.515Z,50.13
2023-10-26T05:56:18.369Z,56.73
2023-10-26T05:57:20.286Z,40.55
2023-10-26T05:58:22.129Z,36.35
2023-10-26T05:59:23.970Z,48.02
2023-10-26T06:00:25.877Z,33.54
2023-10-26T06:01:27.855Z,41.99
2023-10-26T06:02:29.776Z,47.14
2023-10-26T06:03:31.861Z,38.33
2023-10-26T06:04:33.761Z,44.67
2023-10-26T06:05:35.639Z,33.76
2023-10-26T06:06:37.628Z,36.98
2023-10-26T06:07:39.357Z,32.79
2023-10-26T06:08:41.399Z,38.24
2023-10-26T06:09:43.268Z,34.18
2023-10-26T06:10:45.374Z,33.57
2023-10-26T06:11:47.236Z,30.69
2023-10-26T06:12:49.080Z,38.95
2023-10-26T06:13:50.931Z,47.27
2023-10-26T06:14:52.683Z,35.49
2023-10-26T06:15:54.653Z,42.77
2023-10-26T06:16:56.729Z,37.55
2023-10-26T06:17:58.659Z,39.71
2023-10-26T06:19:00.529Z,30.39
2023-10-26T06:20:02.374Z,33.48
2023-10-26T06:21:04.301Z,31.27
2023-10-26T06:22:06.122Z,29.14
2023-10-26T06:23:07.907Z,31.40
2023-10-26T06:24:09.820Z,32.97
2023-10-26T06:25:11.615Z,39.71
2023-10-26T06:26:13.724Z,41.93
2023-10-26T06:27:15.583Z,40.40
2023-10-26T06:28:17.428Z,63.11
2023-10-26T06:29:19.278Z,35.98
2023-10-26T06:30:21.252Z,31.65
2023-10-26T06:31:23.237Z,36.73
2023-10-26T06:32:25.124Z,33.75
2023-10-26T06:33:27.104Z,36.01
2023-10-26T06:34:28.900Z,36.37
2023-10-26T06:35:30.663Z,37.91
2023-10-26T06:36:32.638Z,31.89
2023-10-26T06:37:34.523Z,35.31
2023-10-26T06:38:36.396Z,30.47
2023-10-26T06:39:38.242Z,33.74
2023-10-26T06:40:40.110Z,37.27
2023-10-26T06:41:41.982Z,37.91
2023-10-26T06:42:43.838Z,36.30
2023-10-26T06:43:45.609Z,32.24
2023-10-26T06:44:47.456Z,32.75
2023-10-26T06:45:49.363Z,40.06
2023-10-26T06:46:51.196Z,37.68
2023-10-26T06:47:52.966Z,28.66
2023-10-26T06:48:54.742Z,30.39
2023-10-26T06:49:56.640Z,39.42
2023-10-26T06:50:58.547Z,44.96
2023-10-26T06:52:00.508Z,34.07
2023-10-26T06:53:02.334Z,30.60
2023-10-26T06:54:04.270Z,32.25
2023-10-26T06:55:15.699Z,28.47
2023-10-26T06:56:09.938Z,31.46
2023-10-26T06:57:11.833Z,25.46
2023-10-26T06:58:13.777Z,31.69
2023-10-26T06:59:15.556Z,30.17
2023-10-26T07:00:17.506Z,30.25
2023-10-26T07:01:21.131Z,28.26
2023-10-26T07:02:23.162Z,31.94
2023-10-26T07:03:25.006Z,31.78
2023-10-26T07:04:26.870Z,28.07
2023-10-26T07:05:28.762Z,32.58
2023-10-26T07:06:30.739Z,36.29
2023-10-26T07:07:32.721Z,38.64
2023-10-26T07:08:34.595Z,32.42
2023-10-26T07:09:36.484Z,33.24
2023-10-26T07:10:38.388Z,35.75
2023-10-26T07:11:40.245Z,35.29
2023-10-26T07:12:42.156Z,33.31
2023-10-26T07:13:44.007Z,41.73
2023-10-26T07:14:45.766Z,35.39
2023-10-26T07:15:47.646Z,35.55
2023-10-26T07:16:49.693Z,33.33
2023-10-26T07:17:51.504Z,35.25
2023-10-26T07:18:53.345Z,34.11
2023-10-26T07:19:55.189Z,32.61
2023-10-26T07:20:57.072Z,28.67
2023-10-26T07:21:58.951Z,30.41
2023-10-26T07:23:00.826Z,32.14
2023-10-26T07:24:02.621Z,31.99
2023-10-26T07:25:04.483Z,41.83
2023-10-26T07:26:06.630Z,33.26
2023-10-26T07:27:08.521Z,36.04
2023-10-26T07:28:10.381Z,32.88
2023-10-26T07:29:12.253Z,39.86
2023-10-26T07:30:14.228Z,40.97
2023-10-26T07:31:16.059Z,44.67
2023-10-26T07:32:17.916Z,46.96
2023-10-26T07:33:19.954Z,58.00
2023-10-26T07:34:22.016Z,58.01
2023-10-26T07:35:23.918Z,61.71
2023-10-26T07:36:25.823Z,63.03
2023-10-26T07:37:27.674Z,57.77
2023-10-26T07:38:36.981Z,58.83
2023-10-26T07:39:46.039Z,56.79
2023-10-26T07:40:36.853Z,55.88
2023-10-26T07:42:07.988Z,45.04
2023-10-26T07:42:42.306Z,42.71
2023-10-26T07:43:45.640Z,34.88
2023-10-26T07:44:47.850Z,35.75
2023-10-26T07:45:49.766Z,34.84
2023-10-26T07:46:52.222Z,37.44
2023-10-26T07:47:54.005Z,39.12
2023-10-26T07:48:56.040Z,40.11
2023-10-26T07:49:57.921Z,48.82
2023-10-26T07:50:59.774Z,35.48
2023-10-26T07:52:01.633Z,31.55
2023-10-26T07:53:03.369Z,31.50
2023-10-26T07:55:08.095Z,32.98
2023-10-26T07:56:11.069Z,41.57
2023-10-26T07:57:12.972Z,50.60
2023-10-26T07:58:14.733Z,50.77
2023-10-26T07:59:16.664Z,45.17
2023-10-26T08:00:18.637Z,43.29
2023-10-26T08:01:21.426Z,35.95
2023-10-26T08:02:23.414Z,36.11
2023-10-26T08:03:25.428Z,34.78
2023-10-26T08:04:27.532Z,31.79
2023-10-26T08:05:29.434Z,29.58
2023-10-26T08:06:31.289Z,30.40
2023-10-26T08:07:33.192Z,33.59
2023-10-26T08:08:35.000Z,34.45
2023-10-26T08:09:36.871Z,34.93
2023-10-26T08:10:38.829Z,34.99
2023-10-26T08:11:40.833Z,34.65
2023-10-26T08:12:42.568Z,27.46
2023-10-26T08:13:44.438Z,34.30
2023-10-26T08:16:32.173Z,33.59
2023-10-26T08:16:35.498Z,31.97
2023-10-26T08:16:53.969Z,33.89
2023-10-26T08:17:56.299Z,34.54
2023-10-26T08:18:58.282Z,34.13
2023-10-26T08:20:01.390Z,34.15
2023-10-26T08:21:03.349Z,33.17
2023-10-26T08:22:05.158Z,31.71
2023-10-26T08:23:07.038Z,35.45
2023-10-26T08:24:08.857Z,31.48
2023-10-26T08:25:10.771Z,33.57
2023-10-26T08:26:12.910Z,35.75
2023-10-26T08:27:14.780Z,36.21
2023-10-26T08:28:16.715Z,32.81
2023-10-26T08:29:27.246Z,37.09
2023-10-26T08:30:22.552Z,34.46
2023-10-26T08:31:24.486Z,34.34
2023-10-26T08:32:26.552Z,34.95
2023-10-26T08:33:28.479Z,34.47
2023-10-26T08:34:30.438Z,36.95
2023-10-26T08:35:32.336Z,39.06
2023-10-26T08:36:34.235Z,35.93
2023-10-26T08:37:36.093Z,40.24
2023-10-26T08:38:37.807Z,41.14
2023-10-26T08:39:39.690Z,41.33
2023-10-26T08:40:41.730Z,37.83
2023-10-26T08:41:43.613Z,34.52
2023-10-26T08:42:45.518Z,35.76
2023-10-26T08:43:47.408Z,34.77
2023-10-26T08:44:49.209Z,36.45
2023-10-26T08:45:51.072Z,40.86
2023-10-26T08:46:52.888Z,38.05
2023-10-26T08:47:54.798Z,37.17
2023-10-26T08:48:56.615Z,37.20
2023-10-26T08:50:12.307Z,35.95
2023-10-26T08:51:02.025Z,34.13
2023-10-26T08:52:03.863Z,34.15
2023-10-26T08:53:05.869Z,35.17
2023-10-26T08:54:13.761Z,35.76
2023-10-26T08:55:15.632Z,39.41
2023-10-26T08:56:17.599Z,41.20
2023-10-26T08:57:19.514Z,35.26
2023-10-26T08:58:21.316Z,39.75
2023-10-26T08:59:23.132Z,35.67
2023-10-26T09:00:24.980Z,41.27
2023-10-26T09:01:26.938Z,37.82
2023-10-26T09:02:28.961Z,38.22
2023-10-26T09:03:31.090Z,36.25
2023-10-26T09:04:33.063Z,37.22
2023-10-26T09:05:34.916Z,38.41
2023-10-26T09:06:36.777Z,41.30
2023-10-26T09:07:38.650Z,38.93
2023-10-26T09:08:40.494Z,36.21
2023-10-26T09:09:42.477Z,36.23
2023-10-26T09:10:44.346Z,36.65
2023-10-26T09:11:46.378Z,41.79
2023-10-26T09:12:48.223Z,39.23
2023-10-26T09:13:50.096Z,38.79
2023-10-26T09:14:52.099Z,34.72
2023-10-26T09:15:54.074Z,35.87
2023-10-26T09:16:56.336Z,38.26
2023-10-26T09:17:58.310Z,38.32
2023-10-26T09:19:00.171Z,39.69
2023-10-26T09:20:02.110Z,37.41
2023-10-26T09:21:04.022Z,38.70
2023-10-26T09:22:05.893Z,40.99
2023-10-26T09:23:07.742Z,16.01
2023-10-26T09:24:09.565Z,25.21
2023-10-26T09:25:11.314Z,26.35
2023-10-26T09:26:13.370Z,18.71
2023-10-26T09:27:15.232Z,33.01
2023-10-26T09:28:17.059Z,21.59
2023-10-26T09:29:18.923Z,26.09
2023-10-26T09:30:20.785Z,24.14
2023-10-26T09:31:22.669Z,21.96
2023-10-26T09:32:24.631Z,23.69
2023-10-26T09:33:26.614Z,22.78
2023-10-26T09:34:28.602Z,22.88
2023-10-26T09:35:30.723Z,22.85
2023-10-26T09:36:32.620Z,22.93
2023-10-26T09:37:34.390Z,20.14
2023-10-26T09:38:36.228Z,27.30
2023-10-26T09:39:38.062Z,22.28
2023-10-26T09:40:39.919Z,35.89
2023-10-26T09:41:41.817Z,24.89
2023-10-26T09:42:43.694Z,26.38
2023-10-26T09:43:45.586Z,27.04
2023-10-26T09:44:47.636Z,28.71
2023-10-26T09:45:49.788Z,24.27
2023-10-26T09:46:51.907Z,26.99
2023-10-26T09:47:53.963Z,24.77
2023-10-26T09:48:56.041Z,27.04
2023-10-26T09:49:57.880Z,35.77
2023-10-26T09:50:59.722Z,28.54
2023-10-26T09:52:01.553Z,31.46
2023-10-26T09:53:03.523Z,31.69
2023-10-26T09:54:05.509Z,33.33
2023-10-26T09:55:07.301Z,31.69
2023-10-26T09:56:09.855Z,31.46
2023-10-26T09:57:11.684Z,32.77
2023-10-26T09:58:13.464Z,35.47
2023-10-26T09:59:15.278Z,29.97
2023-10-26T10:00:17.137Z,32.06
2023-10-26T10:01:18.974Z,32.79
2023-10-26T10:02:20.792Z,29.73
2023-10-26T10:03:22.694Z,31.10
2023-10-26T10:04:24.489Z,32.45
2023-10-26T10:05:26.338Z,27.86
2023-10-26T10:06:28.246Z,29.78
2023-10-26T10:07:30.075Z,31.09
2023-10-26T10:08:31.960Z,33.78
2023-10-26T10:09:33.815Z,31.04
2023-10-26T10:10:35.629Z,31.71
2023-10-26T10:11:37.459Z,29.05
2023-10-26T10:12:39.427Z,29.58
2023-10-26T10:13:41.333Z,31.39
2023-10-26T10:14:43.499Z,33.36
2023-10-26T10:15:45.504Z,34.01
2023-10-26T10:16:47.784Z,30.37
2023-10-26T10:17:50.149Z,28.41
2023-10-26T10:18:52.096Z,29.47
2023-10-26T10:19:53.894Z,30.44
2023-10-26T10:20:55.744Z,30.35
2023-10-26T10:21:57.733Z,31.66
2023-10-26T10:22:59.664Z,28.49
2023-10-26T10:24:01.530Z,28.38
2023-10-26T10:25:05.712Z,30.93
2023-10-26T10:26:23.427Z,34.23
2023-10-26T10:27:10.825Z,29.62
2023-10-26T10:28:12.690Z,29.45
2023-10-26T10:29:14.568Z,27.24
2023-10-26T10:30:16.751Z,33.91
2023-10-26T10:31:18.587Z,27.79
2023-10-26T10:32:20.508Z,26.16
2023-10-26T10:33:22.437Z,28.82
2023-10-26T10:34:24.483Z,33.68
2023-10-26T10:35:26.338Z,31.52
2023-10-26T10:36:28.174Z,29.59
2023-10-26T10:37:29.932Z,30.14
2023-10-26T10:38:31.780Z,33.25
2023-10-26T10:39:33.657Z,28.81
2023-10-26T10:40:35.510Z,24.29
2023-10-26T10:41:37.340Z,25.28
2023-10-26T10:42:39.196Z,25.35
2023-10-26T10:43:41.040Z,26.78
2023-10-26T10:44:43.692Z,29.83
2023-10-26T10:45:45.735Z,31.25
2023-10-26T10:46:48.172Z,27.13
2023-10-26T10:47:50.142Z,31.34
2023-10-26T10:48:52.014Z,26.63
2023-10-26T10:49:53.964Z,23.93
2023-10-26T10:50:55.806Z,28.89
2023-10-26T10:51:57.987Z,28.21
2023-10-26T10:52:59.828Z,25.22
2023-10-26T10:54:06.079Z,29.66
2023-10-26T10:55:11.136Z,25.02
2023-10-26T10:56:09.336Z,31.21
2023-10-26T10:57:11.176Z,30.14
2023-10-26T10:58:13.115Z,27.79
2023-10-26T10:59:14.987Z,31.39
2023-10-26T11:00:17.250Z,28.25
2023-10-26T11:01:19.166Z,31.43
2023-10-26T11:02:20.880Z,27.08
2023-10-26T11:03:22.859Z,27.51
2023-10-26T11:04:24.749Z,31.25
2023-10-26T11:05:26.680Z,28.75
2023-10-26T11:06:28.520Z,27.55
2023-10-26T11:07:30.346Z,29.97
2023-10-26T11:08:32.229Z,29.22
2023-10-26T11:09:34.167Z,31.74
2023-10-26T11:10:36.026Z,27.38
2023-10-26T11:11:37.896Z,32.61
2023-10-26T11:12:39.803Z,31.89
2023-10-26T11:13:41.656Z,29.72
2023-10-26T11:14:43.514Z,33.60
2023-10-26T11:15:45.494Z,27.37
2023-10-26T11:16:47.450Z,30.53
2023-10-26T11:17:49.415Z,29.49
2023-10-26T11:18:51.681Z,28.07
2023-10-26T11:19:53.489Z,29.04
2023-10-26T11:20:55.368Z,27.86
2023-10-26T11:21:57.247Z,29.73
2023-10-26T11:22:59.069Z,31.42
2023-10-26T11:24:00.828Z,28.38
2023-10-26T11:25:02.724Z,30.46
2023-10-26T11:26:04.650Z,29.07
2023-10-26T11:27:06.529Z,33.51
2023-10-26T11:28:08.418Z,30.53
2023-10-26T11:29:10.229Z,33.70
2023-10-26T11:30:12.382Z,34.79
2023-10-26T11:31:14.374Z,33.94
2023-10-26T11:32:16.098Z,33.95
2023-10-26T11:33:17.939Z,33.85
2023-10-26T11:34:19.798Z,32.57
2023-10-26T11:35:21.622Z,34.64
2023-10-26T11:36:23.801Z,36.44
2023-10-26T11:37:25.652Z,36.12
2023-10-26T11:38:27.490Z,32.49
2023-10-26T11:39:29.410Z,35.11
2023-10-26T11:40:31.418Z,32.14
2023-10-26T11:41:33.280Z,31.68
2023-10-26T11:42:35.183Z,32.27
2023-10-26T11:43:36.994Z,33.67
2023-10-26T11:45:43.333Z,32.04
2023-10-26T11:46:45.251Z,41.19
2023-10-26T11:47:47.092Z,40.49
2023-10-26T11:48:49.005Z,36.59
2023-10-26T11:49:50.886Z,37.75
2023-10-26T11:50:52.751Z,37.76
2023-10-26T11:51:59.882Z,37.55
2023-10-26T11:52:58.246Z,45.82
2023-10-26T11:54:00.111Z,30.99
2023-10-26T11:55:01.983Z,40.80
2023-10-26T11:56:03.882Z,32.61
2023-10-26T11:57:05.748Z,36.61
2023-10-26T11:58:07.597Z,39.48
2023-10-26T11:59:09.446Z,35.39
2023-10-26T12:00:11.497Z,37.93
2023-10-26T12:01:13.370Z,32.09
2023-10-26T12:02:15.278Z,36.46
2023-10-26T12:03:17.171Z,33.74
2023-10-26T12:04:19.095Z,33.65
2023-10-26T12:05:21.052Z,34.51
2023-10-26T12:06:22.864Z,37.32
2023-10-26T12:07:24.768Z,39.72
2023-10-26T12:08:26.614Z,36.33
2023-10-26T12:09:28.530Z,49.71
2023-10-26T12:10:30.426Z,39.50
2023-10-26T12:11:33.006Z,43.03
2023-10-26T12:12:35.981Z,35.89
2023-10-26T12:13:37.810Z,49.01
2023-10-26T12:14:39.673Z,30.47
2023-10-26T12:15:41.554Z,30.93
2023-10-26T12:16:43.366Z,35.36
2023-10-26T12:17:45.242Z,36.29
2023-10-26T12:18:47.129Z,34.33
2023-10-26T12:19:49.007Z,38.61
2023-10-26T12:20:50.878Z,34.97
2023-10-26T12:21:52.704Z,31.86
2023-10-26T12:22:54.582Z,43.03
2023-10-26T12:23:56.418Z,40.11
2023-10-26T12:24:58.390Z,34.62
2023-10-26T12:26:00.298Z,31.92
2023-10-26T12:27:02.123Z,39.73
2023-10-26T12:28:21.479Z,30.39
2023-10-26T12:29:07.941Z,29.94
2023-10-26T12:30:09.984Z,32.55
2023-10-26T12:31:11.869Z,31.01
2023-10-26T12:32:13.762Z,27.48
2023-10-26T12:33:15.635Z,33.77
2023-10-26T12:34:17.499Z,31.01
2023-10-26T12:35:19.386Z,27.67
2023-10-26T12:36:21.342Z,31.98
2023-10-26T12:37:23.191Z,32.70
2023-10-26T12:38:25.051Z,29.42
2023-10-26T12:39:26.880Z,27.86
2023-10-26T12:40:28.815Z,29.95
2023-10-26T12:41:30.705Z,30.73
2023-10-26T12:42:32.616Z,28.14
2023-10-26T12:43:34.461Z,30.49
2023-10-26T12:44:36.290Z,28.05
2023-10-26T12:45:38.275Z,27.43
2023-10-26T12:46:41.461Z,30.71
2023-10-26T12:47:43.257Z,26.31
2023-10-26T12:48:45.015Z,29.47
2023-10-26T12:49:46.695Z,28.51
2023-10-26T12:50:48.737Z,27.01
2023-10-26T12:51:50.675Z,28.57
2023-10-26T12:52:52.460Z,31.59
2023-10-26T12:53:54.726Z,29.40
2023-10-26T12:54:57.826Z,26.37
2023-10-26T12:55:59.563Z,29.82
2023-10-26T12:57:01.428Z,27.10
2023-10-26T12:58:03.322Z,28.82
2023-10-26T12:59:05.189Z,25.07
2023-10-26T13:00:07.136Z,26.65
2023-10-26T13:01:09.057Z,28.87
2023-10-26T13:02:10.999Z,27.96
2023-10-26T13:03:12.836Z,26.85
2023-10-26T13:04:14.733Z,27.49
2023-10-26T13:05:16.723Z,28.23
2023-10-26T13:06:18.554Z,26.55
2023-10-26T13:07:20.435Z,26.11
2023-10-26T13:08:22.274Z,25.01
2023-10-26T13:09:24.096Z,28.38
2023-10-26T13:10:26.008Z,25.41
2023-10-26T13:11:27.850Z,26.03
2023-10-26T13:12:29.844Z,25.59
2023-10-26T13:13:31.639Z,25.55
2023-10-26T13:14:33.454Z,21.21
2023-10-26T13:15:36.264Z,26.12
2023-10-26T13:16:50.335Z,23.95
2023-10-26T13:17:41.722Z,26.94
2023-10-26T13:18:46.293Z,25.04
2023-10-26T13:19:47.079Z,25.91
2023-10-26T13:20:48.926Z,28.97
2023-10-26T13:21:50.759Z,26.53